Time;durP1;ratioP1;P1;durP2;ratioP2;P2;SDS_P1;SDS_P2;PMS_P1;PMS_P2;Temp;Humidity;BMP_temperature;BMP_pressure;BME280_temperature;BME280_humidity;BME280_pressure;Samples;Min_cycle;Max_cycle;Signal;HPM_P1;HPM_P2
2021/12/23 00:01:23;;;;;;;102.55;50.95;;;;;;;;;;5115183;27;20020;-79
2021/12/23 00:03:49;;;;;;;79.22;40.83;;;;;;;;;;5115000;27;20023;-78
2021/12/23 00:06:14;;;;;;;115.90;57.28;;;;;;;;;;5117430;27;20023;-79
2021/12/23 00:08:39;;;;;;;144.60;68.40;;;;;;;;;;5116434;27;20492;-79
2021/12/23 00:11:05;;;;;;;144.18;71.45;;;;;;;;;;5117172;27;20442;-79
2021/12/23 00:13:33;;;;;;;62.63;31.92;;;;;;;;;;5116100;27;20102;-79
2021/12/23 00:23:50;;;;;;;271.00;124.15;;;;;;;;;;5116215;27;20110;-78
2021/12/23 00:26:15;;;;;;;256.83;122.28;;;;;;;;;;5114891;27;20110;-78
2021/12/23 00:28:41;;;;;;;266.63;124.95;;;;;;;;;;5115040;27;20057;-79
2021/12/23 00:31:06;;;;;;;224.07;105.82;;;;;;;;;;5117178;27;20023;-79
2021/12/23 00:33:34;;;;;;;191.13;91.20;;;;;;;;;;5114335;27;20027;-80
2021/12/23 00:35:59;;;;;;;142.65;69.97;;;;;;;;;;5115031;27;20015;-79
2021/12/23 00:38:32;;;;;;;161.70;76.00;;;;;;;;;;5114451;27;20015;-80
2021/12/23 00:41:00;;;;;;;195.52;90.90;;;;;;;;;;5116194;27;20035;-78
2021/12/23 00:43:25;;;;;;;288.42;126.85;;;;;;;;;;5116090;27;20019;-79
2021/12/23 00:45:50;;;;;;;311.30;140.57;;;;;;;;;;5114519;27;20026;-79
2021/12/23 00:48:16;;;;;;;283.45;126.03;;;;;;;;;;5114742;27;20438;-79
2021/12/23 00:50:41;;;;;;;227.15;99.13;;;;;;;;;;5114165;27;20027;-79
2021/12/23 00:53:09;;;;;;;195.18;81.60;;;;;;;;;;5114532;27;20114;-79
2021/12/23 00:55:34;;;;;;;220.77;91.97;;;;;;;;;;5115978;27;20007;-80
2021/12/23 00:58:00;;;;;;;187.73;76.10;;;;;;;;;;5114556;28;20050;-79
2021/12/23 01:00:26;;;;;;;189.32;79.18;;;;;;;;;;5115684;27;20474;-78
2021/12/23 01:02:51;;;;;;;166.48;74.97;;;;;;;;;;5114998;28;20076;-80
2021/12/23 01:05:19;;;;;;;170.10;73.18;;;;;;;;;;5114212;28;20030;-78
2021/12/23 01:07:44;;;;;;;359.05;148.00;;;;;;;;;;5114536;28;20461;-80
2021/12/23 01:10:10;;;;;;;318.02;132.35;;;;;;;;;;5115697;27;20055;-79
2021/12/23 01:12:43;;;;;;;299.88;125.82;;;;;;;;;;5115578;27;20098;-79
2021/12/23 01:15:39;;;;;;;268.38;116.00;;;;;;;;;;5114915;28;20168;-79
2021/12/23 01:18:11;;;;;;;297.60;122.53;;;;;;;;;;5115639;27;20023;-80
2021/12/23 01:20:37;;;;;;;336.33;141.50;;;;;;;;;;5113814;28;20419;-79
2021/12/23 01:23:07;;;;;;;270.38;119.03;;;;;;;;;;5114335;28;20346;-79
2021/12/23 01:25:33;;;;;;;372.00;148.98;;;;;;;;;;5116605;27;20023;-79
2021/12/23 01:27:58;;;;;;;301.20;123.60;;;;;;;;;;5113583;28;20023;-79
2021/12/23 01:30:24;;;;;;;236.77;95.95;;;;;;;;;;5114136;28;20023;-80
2021/12/23 01:32:51;;;;;;;197.43;78.68;;;;;;;;;;5115261;27;20098;-79
2021/12/23 01:35:17;;;;;;;238.57;101.20;;;;;;;;;;5114211;28;20023;-78
2021/12/23 01:37:43;;;;;;;226.38;95.45;;;;;;;;;;5115748;27;20024;-79
2021/12/23 01:40:09;;;;;;;255.25;108.50;;;;;;;;;;5113464;28;20045;-79
2021/12/23 01:42:35;;;;;;;234.73;105.55;;;;;;;;;;5115294;27;20032;-79
2021/12/23 01:45:00;;;;;;;342.80;134.82;;;;;;;;;;5115826;27;20094;-78
2021/12/23 01:47:26;;;;;;;230.98;97.15;;;;;;;;;;5117139;27;20022;-78
2021/12/23 01:49:51;;;;;;;210.98;85.38;;;;;;;;;;5118072;27;20577;-79
2021/12/23 01:52:17;;;;;;;200.43;84.93;;;;;;;;;;5118384;27;20064;-79
2021/12/23 01:54:43;;;;;;;138.55;59.20;;;;;;;;;;5117649;27;20446;-79
2021/12/23 01:57:08;;;;;;;132.00;58.90;;;;;;;;;;5117632;27;20034;-79
2021/12/23 01:59:34;;;;;;;187.95;81.35;;;;;;;;;;5119506;27;20047;-79
2021/12/23 02:01:59;;;;;;;107.53;51.38;;;;;;;;;;5117262;27;20019;-79
2021/12/23 02:04:24;;;;;;;129.45;56.08;;;;;;;;;;5117603;27;20566;-79
2021/12/23 02:06:50;;;;;;;115.50;53.80;;;;;;;;;;5119272;27;20034;-78
2021/12/23 02:09:15;;;;;;;95.85;46.67;;;;;;;;;;5117294;27;20025;-79
2021/12/23 02:11:41;;;;;;;84.53;39.40;;;;;;;;;;5119241;27;20116;-79
2021/12/23 02:14:06;;;;;;;94.95;44.00;;;;;;;;;;5117514;27;20011;-78
2021/12/23 02:16:32;;;;;;;110.90;50.92;;;;;;;;;;5116965;27;20022;-79
2021/12/23 02:18:57;;;;;;;138.18;58.45;;;;;;;;;;5120044;27;20454;-79
2021/12/23 02:21:23;;;;;;;145.63;63.33;;;;;;;;;;5118745;27;20541;-80
2021/12/23 02:23:48;;;;;;;131.23;61.42;;;;;;;;;;5118559;27;20490;-79
2021/12/23 02:26:13;;;;;;;129.65;55.67;;;;;;;;;;5119257;27;20026;-79
2021/12/23 02:28:39;;;;;;;127.53;62.13;;;;;;;;;;5116565;27;20113;-80
2021/12/23 02:31:04;;;;;;;91.38;43.85;;;;;;;;;;5119468;27;20518;-79
2021/12/23 02:33:30;;;;;;;105.05;50.05;;;;;;;;;;5117600;27;20395;-78
2021/12/23 02:35:56;;;;;;;102.32;52.75;;;;;;;;;;5116673;27;20023;-78
2021/12/23 02:38:22;;;;;;;92.03;46.00;;;;;;;;;;5117915;27;20365;-79
2021/12/23 02:40:48;;;;;;;104.35;50.33;;;;;;;;;;5117998;27;20023;-79
2021/12/23 02:43:18;;;;;;;102.07;47.63;;;;;;;;;;5116866;27;20088;-79
2021/12/23 02:45:44;;;;;;;126.70;58.97;;;;;;;;;;5117576;27;20559;-79
2021/12/23 02:48:13;;;;;;;107.18;49.20;;;;;;;;;;5116643;27;20981;-80
2021/12/23 02:50:39;;;;;;;104.90;49.85;;;;;;;;;;5116188;27;20030;-77
2021/12/23 02:53:04;;;;;;;121.72;55.78;;;;;;;;;;5116510;27;20023;-78
2021/12/23 02:55:30;;;;;;;129.40;58.05;;;;;;;;;;5118573;27;20053;-78
2021/12/23 02:57:55;;;;;;;128.20;57.75;;;;;;;;;;5117922;27;20475;-79
2021/12/23 03:00:21;;;;;;;108.50;49.33;;;;;;;;;;5116133;27;20648;-79
2021/12/23 03:02:46;;;;;;;141.02;60.83;;;;;;;;;;5116815;27;20045;-79
2021/12/23 03:05:12;;;;;;;125.22;53.90;;;;;;;;;;5115818;27;20042;-78
2021/12/23 03:07:37;;;;;;;138.00;59.63;;;;;;;;;;5116527;27;20084;-79
2021/12/23 03:10:04;;;;;;;167.43;72.72;;;;;;;;;;5116545;27;20034;-78
2021/12/23 03:12:29;;;;;;;158.02;73.00;;;;;;;;;;5117098;27;20090;-78
2021/12/23 03:14:54;;;;;;;183.60;78.57;;;;;;;;;;5117557;27;20133;-79
2021/12/23 03:17:20;;;;;;;244.98;93.93;;;;;;;;;;5117933;27;20026;-79
2021/12/23 03:19:45;;;;;;;247.75;99.57;;;;;;;;;;5117237;27;20023;-79
2021/12/23 03:22:10;;;;;;;208.18;88.45;;;;;;;;;;5116456;27;20098;-78
2021/12/23 03:24:36;;;;;;;174.00;75.60;;;;;;;;;;5114369;27;20060;-78
2021/12/23 03:27:02;;;;;;;160.82;65.68;;;;;;;;;;5107836;27;20442;-79
2021/12/23 03:29:27;;;;;;;133.00;59.45;;;;;;;;;;5098404;27;20023;-79
2021/12/23 03:31:52;;;;;;;119.57;54.78;;;;;;;;;;5095364;28;20408;-79
2021/12/23 03:34:18;;;;;;;98.28;44.53;;;;;;;;;;5097545;28;20381;-79
2021/12/23 03:36:43;;;;;;;93.10;41.72;;;;;;;;;;5095416;28;20020;-79
2021/12/23 03:39:09;;;;;;;102.18;44.90;;;;;;;;;;5095066;28;20958;-79
2021/12/23 03:41:34;;;;;;;133.05;54.30;;;;;;;;;;5095131;28;20015;-79
2021/12/23 03:43:59;;;;;;;141.93;56.00;;;;;;;;;;5095416;28;20121;-79
2021/12/23 03:46:25;;;;;;;136.32;56.28;;;;;;;;;;5095528;28;20024;-79
2021/12/23 03:48:50;;;;;;;114.05;49.03;;;;;;;;;;5094826;28;20474;-79
2021/12/23 03:51:16;;;;;;;105.18;45.13;;;;;;;;;;5094782;28;20129;-78
2021/12/23 03:53:41;;;;;;;146.82;61.78;;;;;;;;;;5094450;28;20453;-78
2021/12/23 03:56:06;;;;;;;142.02;58.40;;;;;;;;;;5096176;28;20024;-79
2021/12/23 03:58:32;;;;;;;122.18;50.33;;;;;;;;;;5095139;28;20012;-79
2021/12/23 04:00:57;;;;;;;139.60;56.92;;;;;;;;;;5096772;28;20451;-78
2021/12/23 04:03:22;;;;;;;218.73;85.38;;;;;;;;;;5096097;28;20062;-78
2021/12/23 04:05:48;;;;;;;165.50;70.95;;;;;;;;;;5096786;28;20023;-78
2021/12/23 04:08:13;;;;;;;127.22;54.03;;;;;;;;;;5096451;28;20012;-78
2021/12/23 04:10:39;;;;;;;106.10;48.00;;;;;;;;;;5096230;28;20023;-78
2021/12/23 04:13:04;;;;;;;97.03;44.40;;;;;;;;;;5094646;28;20022;-79
2021/12/23 04:15:30;;;;;;;94.78;46.63;;;;;;;;;;5094397;28;20455;-77
2021/12/23 04:17:55;;;;;;;125.47;54.22;;;;;;;;;;5094843;28;20015;-79
2021/12/23 04:20:23;;;;;;;134.52;58.45;;;;;;;;;;5094413;28;20052;-79
2021/12/23 04:22:53;;;;;;;137.07;61.55;;;;;;;;;;5094197;28;20016;-79
2021/12/23 04:25:19;;;;;;;146.10;67.05;;;;;;;;;;5095953;28;20524;-78
2021/12/23 04:27:46;;;;;;;141.82;61.85;;;;;;;;;;5094268;28;20027;-79
2021/12/23 04:30:12;;;;;;;116.28;51.28;;;;;;;;;;5094523;28;20031;-79
2021/12/23 04:32:37;;;;;;;100.97;46.80;;;;;;;;;;5094423;28;20011;-79
2021/12/23 04:35:03;;;;;;;123.13;59.30;;;;;;;;;;5096502;27;20062;-79
2021/12/23 04:37:28;;;;;;;112.22;52.92;;;;;;;;;;5095746;28;20015;-80
2021/12/23 04:39:54;;;;;;;113.32;51.80;;;;;;;;;;5094271;28;20370;-79
2021/12/23 04:42:19;;;;;;;104.45;46.47;;;;;;;;;;5093800;28;20350;-79
2021/12/23 04:44:45;;;;;;;86.53;40.47;;;;;;;;;;5095790;28;20020;-79
2021/12/23 04:47:10;;;;;;;100.47;45.00;;;;;;;;;;5094144;28;20016;-79
2021/12/23 04:49:35;;;;;;;111.88;52.25;;;;;;;;;;5093798;28;20027;-79
2021/12/23 04:52:01;;;;;;;105.20;46.85;;;;;;;;;;5095943;28;20016;-79
2021/12/23 04:54:26;;;;;;;92.80;42.28;;;;;;;;;;5094245;28;20016;-79
2021/12/23 04:56:51;;;;;;;104.00;45.25;;;;;;;;;;5093853;28;20020;-79
2021/12/23 04:59:17;;;;;;;130.63;55.30;;;;;;;;;;5095587;28;20069;-78
2021/12/23 05:01:42;;;;;;;124.90;57.30;;;;;;;;;;5096470;28;20026;-80
2021/12/23 05:04:07;;;;;;;133.57;56.35;;;;;;;;;;5093710;28;20116;-79
2021/12/23 05:06:33;;;;;;;114.40;46.35;;;;;;;;;;5094378;28;20020;-79
2021/12/23 05:08:58;;;;;;;134.25;54.28;;;;;;;;;;5096267;28;20024;-79
2021/12/23 05:11:23;;;;;;;152.07;61.13;;;;;;;;;;5093723;28;20035;-79
2021/12/23 05:13:49;;;;;;;147.27;63.72;;;;;;;;;;5095545;28;20069;-79
2021/12/23 05:16:18;;;;;;;139.80;58.42;;;;;;;;;;5094184;28;20506;-79
2021/12/23 05:18:43;;;;;;;165.07;67.50;;;;;;;;;;5094794;28;20465;-79
2021/12/23 05:21:09;;;;;;;176.80;74.10;;;;;;;;;;5095109;28;20252;-79
2021/12/23 05:23:34;;;;;;;160.00;70.28;;;;;;;;;;5099026;28;20015;-79
2021/12/23 05:26:00;;;;;;;158.93;70.10;;;;;;;;;;5097738;28;20469;-79
2021/12/23 05:28:25;;;;;;;117.43;51.03;;;;;;;;;;5097838;28;20443;-79
2021/12/23 05:30:51;;;;;;;148.23;61.92;;;;;;;;;;5097966;28;20023;-79
2021/12/23 05:33:16;;;;;;;157.88;64.97;;;;;;;;;;5099354;28;20384;-80
2021/12/23 05:35:42;;;;;;;139.07;59.45;;;;;;;;;;5097810;28;20043;-79
2021/12/23 05:38:07;;;;;;;126.50;54.30;;;;;;;;;;5097520;28;20917;-80
2021/12/23 05:40:33;;;;;;;115.88;51.63;;;;;;;;;;5098969;28;20913;-79
2021/12/23 05:42:59;;;;;;;117.97;50.40;;;;;;;;;;5106614;27;20067;-79
2021/12/23 05:45:24;;;;;;;127.10;57.45;;;;;;;;;;5116183;27;20024;-77
2021/12/23 05:47:50;;;;;;;101.30;46.40;;;;;;;;;;5118374;27;20469;-80
2021/12/23 05:50:17;;;;;;;103.72;48.70;;;;;;;;;;5120318;27;20050;-79
2021/12/23 05:52:43;;;;;;;159.38;69.15;;;;;;;;;;5119028;27;20011;-80
2021/12/23 05:55:09;;;;;;;126.95;61.60;;;;;;;;;;5118363;27;20080;-79
2021/12/23 05:57:35;;;;;;;122.22;57.90;;;;;;;;;;5116480;27;20110;-81
2021/12/23 06:00:00;;;;;;;116.80;52.85;;;;;;;;;;5117303;27;20126;-79
2021/12/23 06:02:26;;;;;;;109.40;48.38;;;;;;;;;;5117233;27;20019;-79
2021/12/23 06:04:52;;;;;;;141.68;61.95;;;;;;;;;;5116909;27;20335;-79
2021/12/23 06:07:17;;;;;;;166.35;77.13;;;;;;;;;;5116797;27;20015;-79
2021/12/23 06:09:42;;;;;;;121.75;54.95;;;;;;;;;;5117292;27;20037;-79
2021/12/23 06:12:08;;;;;;;92.88;43.75;;;;;;;;;;5119287;27;20520;-78
2021/12/23 06:14:33;;;;;;;121.63;53.45;;;;;;;;;;5117377;27;20015;-79
2021/12/23 06:17:01;;;;;;;262.58;105.05;;;;;;;;;;5117180;27;20023;-78
2021/12/23 06:19:26;;;;;;;255.40;99.47;;;;;;;;;;5117245;27;20031;-80
2021/12/23 06:21:52;;;;;;;156.98;70.25;;;;;;;;;;5118704;27;20015;-79
2021/12/23 06:24:17;;;;;;;171.95;79.63;;;;;;;;;;5117464;27;20015;-79
2021/12/23 06:26:42;;;;;;;170.35;75.47;;;;;;;;;;5117395;27;20031;-77
2021/12/23 06:29:08;;;;;;;152.18;73.28;;;;;;;;;;5117255;27;20034;-79
2021/12/23 06:31:33;;;;;;;237.93;106.40;;;;;;;;;;5108342;27;20016;-79
2021/12/23 06:33:58;;;;;;;337.52;142.63;;;;;;;;;;5118888;27;20026;-78
2021/12/23 06:36:24;;;;;;;409.00;175.18;;;;;;;;;;5139147;27;20022;-77
2021/12/23 06:38:49;;;;;;;413.23;166.25;;;;;;;;;;5138064;27;20022;-78
2021/12/23 06:41:16;;;;;;;296.98;119.65;;;;;;;;;;5136875;27;20054;-79
2021/12/23 06:43:42;;;;;;;330.35;129.95;;;;;;;;;;5139226;27;20011;-78
2021/12/23 06:46:07;;;;;;;397.92;155.77;;;;;;;;;;5137526;27;20015;-78
2021/12/23 06:48:33;;;;;;;525.28;226.05;;;;;;;;;;5137058;27;20026;-78
2021/12/23 06:50:59;;;;;;;641.20;277.83;;;;;;;;;;5140346;27;20054;-79
2021/12/23 06:53:25;;;;;;;609.83;259.88;;;;;;;;;;5137382;27;20022;-79
2021/12/23 06:55:52;;;;;;;343.23;140.43;;;;;;;;;;5137463;27;20023;-79
2021/12/23 06:58:18;;;;;;;490.02;212.48;;;;;;;;;;5137180;27;20478;-80
2021/12/23 07:00:43;;;;;;;309.75;139.15;;;;;;;;;;5127862;27;20059;-77
2021/12/23 07:03:08;;;;;;;216.48;100.75;;;;;;;;;;5117935;27;20409;-77
2021/12/23 07:05:34;;;;;;;162.10;76.68;;;;;;;;;;5113668;27;20585;-77
2021/12/23 07:08:10;;;;;;;146.07;70.15;;;;;;;;;;5115053;27;20026;-78
2021/12/23 07:10:36;;;;;;;157.57;72.72;;;;;;;;;;5114851;27;20579;-78
2021/12/23 07:13:01;;;;;;;171.82;87.32;;;;;;;;;;5116694;27;20644;-76
2021/12/23 07:15:27;;;;;;;129.90;63.10;;;;;;;;;;5116530;27;20434;-76
2021/12/23 07:17:54;;;;;;;136.43;69.53;;;;;;;;;;5131797;27;20067;-79
2021/12/23 07:20:19;;;;;;;111.40;55.15;;;;;;;;;;5137062;27;20069;-78
2021/12/23 07:22:45;;;;;;;141.75;65.88;;;;;;;;;;5135763;27;20039;-77
2021/12/23 07:25:12;;;;;;;134.57;61.80;;;;;;;;;;5136698;27;20023;-78
2021/12/23 07:27:38;;;;;;;116.78;57.55;;;;;;;;;;5136144;27;20426;-78
2021/12/23 07:30:04;;;;;;;137.40;65.60;;;;;;;;;;5136869;27;20054;-78
2021/12/23 07:32:29;;;;;;;96.50;46.15;;;;;;;;;;5138072;27;20531;-79
2021/12/23 07:34:54;;;;;;;104.30;50.17;;;;;;;;;;5137694;27;20445;-79
2021/12/23 07:37:20;;;;;;;106.15;50.88;;;;;;;;;;5137302;27;20457;-78
2021/12/23 07:39:47;;;;;;;109.18;47.05;;;;;;;;;;5136110;27;20738;-79
2021/12/23 07:42:15;;;;;;;106.82;49.92;;;;;;;;;;5120513;27;20027;-77
2021/12/23 07:44:40;;;;;;;70.95;36.60;;;;;;;;;;5114259;27;20032;-76
2021/12/23 07:47:06;;;;;;;100.70;47.72;;;;;;;;;;5115533;27;20019;-78
2021/12/23 07:49:31;;;;;;;82.05;45.90;;;;;;;;;;5115649;27;20076;-77
2021/12/23 07:51:57;;;;;;;86.43;45.78;;;;;;;;;;5115231;27;20023;-78
2021/12/23 07:54:22;;;;;;;95.53;47.88;;;;;;;;;;5115542;27;20178;-78
2021/12/23 07:56:47;;;;;;;146.52;69.97;;;;;;;;;;5115383;27;20019;-78
2021/12/23 07:59:13;;;;;;;83.40;42.40;;;;;;;;;;5114607;27;20039;-78
2021/12/23 08:01:38;;;;;;;64.35;32.72;;;;;;;;;;5115379;27;20019;-78
2021/12/23 08:04:04;;;;;;;68.25;36.17;;;;;;;;;;5115232;27;20102;-77
2021/12/23 08:06:29;;;;;;;62.90;31.95;;;;;;;;;;5115022;27;20041;-78
2021/12/23 08:08:54;;;;;;;66.10;37.45;;;;;;;;;;5096719;28;20027;-77
2021/12/23 08:11:20;;;;;;;76.93;43.35;;;;;;;;;;5094800;28;20340;-76
2021/12/23 08:13:45;;;;;;;88.97;49.40;;;;;;;;;;5094375;28;20024;-77
2021/12/23 08:16:10;;;;;;;83.60;43.83;;;;;;;;;;5094775;28;20023;-78
2021/12/23 08:18:36;;;;;;;90.00;46.47;;;;;;;;;;5096321;28;20020;-78
2021/12/23 08:21:01;;;;;;;68.32;36.80;;;;;;;;;;5096555;28;20034;-78
2021/12/23 08:23:27;;;;;;;95.88;44.35;;;;;;;;;;5094614;28;20438;-78
2021/12/23 08:25:53;;;;;;;67.97;37.47;;;;;;;;;;5094194;28;20015;-78
2021/12/23 08:28:19;;;;;;;91.18;49.03;;;;;;;;;;5096446;28;20016;-77
2021/12/23 08:30:44;;;;;;;95.50;50.65;;;;;;;;;;5094478;28;20469;-78
2021/12/23 08:33:09;;;;;;;91.32;52.90;;;;;;;;;;5095782;28;20498;-79
2021/12/23 08:35:35;;;;;;;62.35;36.50;;;;;;;;;;5094198;28;20049;-77
2021/12/23 08:38:01;;;;;;;62.42;36.83;;;;;;;;;;5094354;28;20027;-76
2021/12/23 08:40:28;;;;;;;62.63;37.05;;;;;;;;;;5094846;28;20031;-77
2021/12/23 08:42:56;;;;;;;53.35;31.20;;;;;;;;;;5095973;28;20388;-77
2021/12/23 08:45:22;;;;;;;43.35;27.25;;;;;;;;;;5104704;27;20189;-78
2021/12/23 08:47:48;;;;;;;39.33;25.08;;;;;;;;;;5114144;27;20110;-78
2021/12/23 08:50:15;;;;;;;33.80;21.83;;;;;;;;;;5114209;27;20461;-77
2021/12/23 08:52:40;;;;;;;36.58;23.48;;;;;;;;;;5114226;27;20015;-76
2021/12/23 08:55:06;;;;;;;43.50;26.65;;;;;;;;;;5116573;27;20027;-77
2021/12/23 08:57:32;;;;;;;46.60;30.20;;;;;;;;;;5115658;27;20325;-77
2021/12/23 08:59:57;;;;;;;41.88;25.23;;;;;;;;;;5113693;27;20508;-77
2021/12/23 09:02:23;;;;;;;42.03;27.27;;;;;;;;;;5115993;27;20525;-76
2021/12/23 09:04:48;;;;;;;39.63;23.65;;;;;;;;;;5114250;28;20026;-76
2021/12/23 09:07:14;;;;;;;38.30;24.20;;;;;;;;;;5116207;27;20019;-78
2021/12/23 09:09:39;;;;;;;30.45;22.75;;;;;;;;;;5115383;27;20485;-77
2021/12/23 09:12:06;;;;;;;42.97;29.40;;;;;;;;;;5117083;27;20038;-77
2021/12/23 09:14:32;;;;;;;42.03;25.83;;;;;;;;;;5114343;28;20023;-77
2021/12/23 09:16:57;;;;;;;42.60;24.27;;;;;;;;;;5115567;27;20120;-77
2021/12/23 09:19:22;;;;;;;59.15;36.03;;;;;;;;;;5114657;28;20030;-77
2021/12/23 09:21:48;;;;;;;94.30;44.22;;;;;;;;;;5113865;28;20033;-76
2021/12/23 09:24:13;;;;;;;188.98;70.50;;;;;;;;;;5115605;28;20019;-76
2021/12/23 09:26:57;;;;;;;77.22;37.80;;;;;;;;;;5127664;27;20185;-77
2021/12/23 09:34:44;;;;;;;45.35;29.40;;;;;;;;;;5115767;28;20174;-76
2021/12/23 09:37:10;;;;;;;42.80;26.42;;;;;;;;;;5114351;28;20517;-76
2021/12/23 09:39:35;;;;;;;32.33;22.55;;;;;;;;;;5116050;27;20031;-76
2021/12/23 09:42:02;;;;;;;25.42;19.02;;;;;;;;;;5115382;28;20015;-76
2021/12/23 09:44:28;;;;;;;26.38;17.77;;;;;;;;;;5115132;27;20519;-76
2021/12/23 09:46:55;;;;;;;45.92;27.45;;;;;;;;;;5113728;28;20019;-76
2021/12/23 09:49:21;;;;;;;44.33;29.10;;;;;;;;;;5115441;27;20027;-76
2021/12/23 09:51:48;;;;;;;49.38;33.83;;;;;;;;;;5113564;28;20068;-77
2021/12/23 09:54:16;;;;;;;56.85;37.50;;;;;;;;;;5114262;28;20050;-76
2021/12/23 09:56:41;;;;;;;43.55;26.48;;;;;;;;;;5116044;27;20015;-76
2021/12/23 09:59:07;;;;;;;25.90;17.40;;;;;;;;;;5115162;27;20047;-76
2021/12/23 10:01:34;;;;;;;37.70;21.30;;;;;;;;;;5116426;27;20019;-76
2021/12/23 10:03:59;;;;;;;34.30;21.55;;;;;;;;;;5115470;27;20042;-76
2021/12/23 10:06:26;;;;;;;25.58;17.40;;;;;;;;;;5116634;27;20046;-75
2021/12/23 10:08:52;;;;;;;25.75;18.90;;;;;;;;;;5119219;27;20658;-75
2021/12/23 10:38:12;;;;;;;18.80;14.63;;;;;;;;;;5098261;28;20038;-76
2021/12/23 10:40:39;;;;;;;19.52;13.25;;;;;;;;;;5096668;28;20026;-76
2021/12/23 10:43:08;;;;;;;104.55;51.15;;;;;;;;;;5096714;28;20051;-76
2021/12/23 10:45:42;;;;;;;42.30;23.27;;;;;;;;;;5097701;28;20573;-76
2021/12/23 10:48:12;;;;;;;32.10;21.13;;;;;;;;;;5098944;28;20019;-76
2021/12/23 10:50:45;;;;;;;33.95;22.30;;;;;;;;;;5098567;28;20730;-76
2021/12/23 10:53:25;;;;;;;44.90;28.25;;;;;;;;;;5097498;28;20016;-76
2021/12/23 10:59:14;;;;;;;24.42;14.93;;;;;;;;;;5097483;28;20059;-74
2021/12/23 11:02:04;;;;;;;32.72;24.42;;;;;;;;;;5091243;28;20031;-74
2021/12/23 11:04:35;;;;;;;25.27;17.23;;;;;;;;;;5087620;27;20024;-74
2021/12/23 11:07:13;;;;;;;21.58;14.52;;;;;;;;;;5094794;28;20020;-75
2021/12/23 11:09:54;;;;;;;26.60;18.55;;;;;;;;;;5097756;28;20023;-75
2021/12/23 11:37:50;;;;;;;18.48;13.35;;;;;;;;;;5097567;28;20027;-75
2021/12/23 11:45:31;;;;;;;27.50;18.48;;;;;;;;;;5097245;28;20092;-76
2021/12/23 11:47:57;;;;;;;21.40;14.52;;;;;;;;;;5097372;28;20856;-76
2021/12/23 11:50:30;;;;;;;30.13;17.50;;;;;;;;;;5096997;28;20028;-74
2021/12/23 11:52:56;;;;;;;31.90;18.92;;;;;;;;;;5096475;28;20027;-76
2021/12/23 11:55:21;;;;;;;22.90;14.20;;;;;;;;;;5096533;28;20035;-76
2021/12/23 11:57:48;;;;;;;40.72;23.52;;;;;;;;;;5095959;28;20020;-75
2021/12/23 12:00:18;;;;;;;27.02;16.90;;;;;;;;;;5097477;28;20086;-75
2021/12/23 12:02:44;;;;;;;30.13;20.40;;;;;;;;;;5094628;28;20361;-76
2021/12/23 12:05:14;;;;;;;31.38;17.48;;;;;;;;;;5096441;28;20027;-75
2021/12/23 12:07:39;;;;;;;;;;;;;;;;;;5096956;28;20027;-75
2021/12/23 12:10:05;;;;;;;44.40;25.10;;;;;;;;;;5095502;28;19904;-74
2021/12/23 12:12:31;;;;;;;38.40;22.52;;;;;;;;;;5094542;28;20102;-75
2021/12/23 12:14:57;;;;;;;57.85;37.25;;;;;;;;;;5096244;28;20011;-76
2021/12/23 12:19:56;;;;;;;28.27;17.70;;;;;;;;;;5095716;28;20089;-76
2021/12/23 12:22:41;;;;;;;25.02;17.17;;;;;;;;;;5094612;28;20028;-74
2021/12/23 12:25:06;;;;;;;21.60;15.23;;;;;;;;;;5094381;28;20019;-76
2021/12/23 12:27:33;;;;;;;29.33;21.00;;;;;;;;;;5096601;28;20027;-75
2021/12/23 12:30:06;;;;;;;24.67;17.08;;;;;;;;;;5094164;28;20019;-76
2021/12/23 12:32:35;;;;;;;23.40;14.80;;;;;;;;;;5095711;28;20016;-76
2021/12/23 12:35:09;;;;;;;17.97;12.47;;;;;;;;;;5096855;28;20019;-76
2021/12/23 12:37:42;;;;;;;17.42;12.43;;;;;;;;;;5096883;28;20043;-76
2021/12/23 12:40:09;;;;;;;16.40;11.98;;;;;;;;;;5094019;28;20084;-76
2021/12/23 12:42:38;;;;;;;14.23;10.63;;;;;;;;;;5094664;28;20453;-76
2021/12/23 12:45:10;;;;;;;26.38;16.90;;;;;;;;;;5094030;28;20030;-76
2021/12/23 12:47:47;;;;;;;20.13;13.93;;;;;;;;;;5093931;28;20019;-75
2021/12/23 12:50:14;;;;;;;32.92;21.45;;;;;;;;;;5096558;28;20059;-75
2021/12/23 12:52:41;;;;;;;22.17;15.85;;;;;;;;;;5095299;28;20020;-75
2021/12/23 12:55:18;;;;;;;30.17;20.40;;;;;;;;;;5095573;28;20019;-76
2021/12/23 12:57:48;;;;;;;42.13;27.50;;;;;;;;;;5095613;28;20026;-75
2021/12/23 13:00:13;;;;;;;;;;;;;;;;;;5096132;28;20469;-75
2021/12/23 13:02:39;;;;;;;28.40;17.35;;;;;;;;;;5094825;28;19956;-76
2021/12/23 13:05:09;;;;;;;69.35;47.95;;;;;;;;;;5095213;28;20016;-76
2021/12/23 13:07:35;;;;;;;;;;;;;;;;;;5096684;28;20450;-75
2021/12/23 13:10:04;;;;;;;30.98;21.85;;;;;;;;;;5093839;28;19947;-76
2021/12/23 13:12:43;;;;;;;26.42;17.50;;;;;;;;;;5095666;28;20117;-76
2021/12/23 13:15:16;;;;;;;39.38;25.55;;;;;;;;;;5093919;28;20072;-75
2021/12/23 13:17:52;;;;;;;28.25;19.50;;;;;;;;;;5095442;28;20072;-76
2021/12/23 13:20:17;;;;;;;34.92;24.17;;;;;;;;;;5094869;28;20055;-76
2021/12/23 13:22:44;;;;;;;38.53;20.40;;;;;;;;;;5095354;28;20689;-78
2021/12/23 13:25:10;;;;;;;28.02;16.33;;;;;;;;;;5095376;28;20020;-76
2021/12/23 13:27:40;;;;;;;49.72;25.73;;;;;;;;;;5095599;28;20016;-77
2021/12/23 13:30:06;;;;;;;36.17;20.30;;;;;;;;;;5095576;28;20136;-76
2021/12/23 13:32:32;;;;;;;37.38;23.58;;;;;;;;;;5094806;28;20011;-76
2021/12/23 13:35:27;;;;;;;32.53;19.95;;;;;;;;;;5092881;28;20020;-76
2021/12/23 13:37:53;;;;;;;45.10;31.63;;;;;;;;;;5076251;28;20031;-75
2021/12/23 13:40:29;;;;;;;34.30;24.35;;;;;;;;;;5093294;28;20027;-77
2021/12/23 13:42:54;;;;;;;46.20;34.55;;;;;;;;;;5097994;27;21153;-76
2021/12/23 13:45:20;;;;;;;30.90;19.98;;;;;;;;;;5114826;27;20019;-78
2021/12/23 13:47:45;;;;;;;48.60;32.20;;;;;;;;;;5096823;28;20030;-76
2021/12/23 13:50:11;;;;;;;55.33;35.17;;;;;;;;;;5099174;28;20023;-77
2021/12/23 13:52:41;;;;;;;45.05;29.88;;;;;;;;;;5099013;28;20015;-76
2021/12/23 13:55:08;;;;;;;78.65;46.50;;;;;;;;;;5099658;28;20132;-75
2021/12/23 13:57:35;;;;;;;52.17;33.03;;;;;;;;;;5099607;28;20020;-74
2021/12/23 14:00:01;;;;;;;28.75;18.98;;;;;;;;;;5096541;28;20085;-78
2021/12/23 14:02:27;;;;;;;44.47;31.35;;;;;;;;;;5097228;28;20019;-75
2021/12/23 14:04:59;;;;;;;49.50;32.95;;;;;;;;;;5098614;28;20026;-75
2021/12/23 14:07:26;;;;;;;37.63;21.88;;;;;;;;;;5097008;28;20432;-76
2021/12/23 14:09:53;;;;;;;29.88;23.02;;;;;;;;;;5096669;28;20408;-77
2021/12/23 14:12:23;;;;;;;29.38;22.13;;;;;;;;;;5097142;27;20023;-75
2021/12/23 14:14:50;;;;;;;38.47;23.27;;;;;;;;;;5097115;27;20066;-76
2021/12/23 14:17:22;;;;;;;62.75;41.28;;;;;;;;;;5098244;28;20015;-76
2021/12/23 14:23:11;;;;;;;80.88;45.00;;;;;;;;;;5102387;27;20027;-74
2021/12/23 14:25:26;;;;;;;105.32;56.28;;;;;;;;;;5115835;27;20084;-74
2021/12/23 14:27:52;;;;;;;122.90;67.47;;;;;;;;;;5117365;27;20746;-74
2021/12/23 14:30:17;;;;;;;138.95;77.70;;;;;;;;;;5118089;27;20059;-75
2021/12/23 14:32:42;;;;;;;137.52;80.13;;;;;;;;;;5118195;27;20469;-76
2021/12/23 14:35:25;;;;;;;79.85;49.17;;;;;;;;;;5118494;27;20015;-76
2021/12/23 14:37:58;;;;;;;74.10;49.10;;;;;;;;;;5117047;27;20023;-75
2021/12/23 14:40:23;;;;;;;46.08;31.38;;;;;;;;;;5118260;27;20531;-76
2021/12/23 14:43:02;;;;;;;72.78;46.35;;;;;;;;;;5118945;27;20015;-74
2021/12/23 14:45:28;;;;;;;110.15;64.05;;;;;;;;;;5118083;27;20020;-76
2021/12/23 14:48:00;;;;;;;129.73;69.13;;;;;;;;;;5116851;27;20027;-78
2021/12/23 14:50:26;;;;;;;148.02;72.93;;;;;;;;;;5116781;27;20020;-76
2021/12/23 14:52:56;;;;;;;68.75;42.03;;;;;;;;;;5117311;27;20068;-75
2021/12/23 14:55:21;;;;;;;;;;;;;;;;;;5117370;27;20019;-75
2021/12/23 14:57:46;;;;;;;48.63;29.83;;;;;;;;;;5116342;27;19904;-75
2021/12/23 15:00:18;;;;;;;48.95;28.92;;;;;;;;;;5117990;27;20283;-75
2021/12/23 15:02:44;;;;;;;66.72;41.92;;;;;;;;;;5118566;27;20026;-78
2021/12/23 15:05:15;;;;;;;57.78;36.13;;;;;;;;;;5116064;27;20027;-77
2021/12/23 15:07:46;;;;;;;73.13;46.40;;;;;;;;;;5116309;27;20429;-78
2021/12/23 15:10:12;;;;;;;75.57;45.13;;;;;;;;;;5113140;27;20619;-75
2021/12/23 15:12:37;;;;;;;54.28;34.95;;;;;;;;;;5095079;28;20065;-75
2021/12/23 15:15:05;;;;;;;51.42;36.97;;;;;;;;;;5113354;27;20024;-76
2021/12/23 15:17:41;;;;;;;42.10;28.33;;;;;;;;;;5097212;28;20012;-77
2021/12/23 15:20:20;;;;;;;35.58;25.83;;;;;;;;;;5112422;27;20023;-77
2021/12/23 15:22:45;;;;;;;48.67;38.67;;;;;;;;;;5097428;28;20018;-75
2021/12/23 15:25:12;;;;;;;70.65;47.63;;;;;;;;;;5097346;28;20020;-76
2021/12/23 15:27:38;;;;;;;113.25;68.80;;;;;;;;;;5094620;28;20019;-75
2021/12/23 15:30:29;;;;;;;93.10;60.05;;;;;;;;;;5097044;28;20339;-75